sensor_id;sensor_type;location;lat;lon;timestamp;temperature;humidity
20845;DHT22;10583;49.084;8.646;2023-04-25T00:00:35;8.00;99.90
20845;DHT22;10583;49.084;8.646;2023-04-25T00:03:02;8.10;99.90
20845;DHT22;10583;49.084;8.646;2023-04-25T00:05:30;8.10;99.90
20845;DHT22;10583;49.084;8.646;2023-04-25T00:07:57;8.20;99.90
20845;DHT22;10583;49.084;8.646;2023-04-25T00:10:25;8.20;99.90
20845;DHT22;10583;49.084;8.646;2023-04-25T00:12:52;8.30;99.90
20845;DHT22;10583;49.084;8.646;2023-04-25T00:15:19;8.40;99.90
20845;DHT22;10583;49.084;8.646;2023-04-25T00:17:46;8.40;99.90
20845;DHT22;10583;49.084;8.646;2023-04-25T00:20:13;8.40;99.90
20845;DHT22;10583;49.084;8.646;2023-04-25T00:22:40;8.40;99.90
20845;DHT22;10583;49.084;8.646;2023-04-25T00:25:07;8.50;99.90
20845;DHT22;10583;49.084;8.646;2023-04-25T00:27:35;8.40;99.90
20845;DHT22;10583;49.084;8.646;2023-04-25T00:30:03;8.40;99.90
20845;DHT22;10583;49.084;8.646;2023-04-25T00:32:30;8.40;99.90
20845;DHT22;10583;49.084;8.646;2023-04-25T00:34:56;8.50;99.90
20845;DHT22;10583;49.084;8.646;2023-04-25T00:37:24;8.50;99.90
20845;DHT22;10583;49.084;8.646;2023-04-25T00:39:50;8.50;99.90
20845;DHT22;10583;49.084;8.646;2023-04-25T00:42:19;8.50;99.90
20845;DHT22;10583;49.084;8.646;2023-04-25T00:44:47;8.50;99.90
20845;DHT22;10583;49.084;8.646;2023-04-25T00:47:15;8.50;99.90
20845;DHT22;10583;49.084;8.646;2023-04-25T00:49:42;8.50;99.90
20845;DHT22;10583;49.084;8.646;2023-04-25T00:52:09;8.50;99.90
20845;DHT22;10583;49.084;8.646;2023-04-25T00:54:36;8.50;99.90
20845;DHT22;10583;49.084;8.646;2023-04-25T00:57:03;8.40;99.90
20845;DHT22;10583;49.084;8.646;2023-04-25T00:59:30;8.40;99.90
20845;DHT22;10583;49.084;8.646;2023-04-25T01:01:58;8.30;99.90
20845;DHT22;10583;49.084;8.646;2023-04-25T01:04:27;8.20;99.90
20845;DHT22;10583;49.084;8.646;2023-04-25T01:06:54;8.20;99.90
20845;DHT22;10583;49.084;8.646;2023-04-25T01:09:21;8.10;99.90
20845;DHT22;10583;49.084;8.646;2023-04-25T01:11:48;8.10;99.90
20845;DHT22;10583;49.084;8.646;2023-04-25T01:14:15;8.10;99.90
20845;DHT22;10583;49.084;8.646;2023-04-25T01:16:42;8.10;99.90
20845;DHT22;10583;49.084;8.646;2023-04-25T01:19:11;8.10;99.90
20845;DHT22;10583;49.084;8.646;2023-04-25T01:21:40;8.20;99.90
20845;DHT22;10583;49.084;8.646;2023-04-25T01:24:07;8.20;99.90
20845;DHT22;10583;49.084;8.646;2023-04-25T01:26:34;8.20;99.90
20845;DHT22;10583;49.084;8.646;2023-04-25T01:29:01;8.20;99.90
20845;DHT22;10583;49.084;8.646;2023-04-25T01:31:30;8.20;99.90
20845;DHT22;10583;49.084;8.646;2023-04-25T01:33:58;8.20;99.90
20845;DHT22;10583;49.084;8.646;2023-04-25T01:36:25;8.10;99.90
20845;DHT22;10583;49.084;8.646;2023-04-25T01:38:53;8.20;99.90
20845;DHT22;10583;49.084;8.646;2023-04-25T01:41:20;8.20;99.90
20845;DHT22;10583;49.084;8.646;2023-04-25T01:43:48;8.20;99.90
20845;DHT22;10583;49.084;8.646;2023-04-25T01:46:16;8.20;99.90
20845;DHT22;10583;49.084;8.646;2023-04-25T01:48:42;8.20;99.90
20845;DHT22;10583;49.084;8.646;2023-04-25T01:51:09;8.30;99.90
20845;DHT22;10583;49.084;8.646;2023-04-25T01:53:37;8.30;99.90
20845;DHT22;10583;49.084;8.646;2023-04-25T01:56:06;8.30;99.90
20845;DHT22;10583;49.084;8.646;2023-04-25T01:58:32;8.30;99.90
20845;DHT22;10583;49.084;8.646;2023-04-25T02:00:59;8.30;99.90
20845;DHT22;10583;49.084;8.646;2023-04-25T02:03:26;8.30;99.90
20845;DHT22;10583;49.084;8.646;2023-04-25T02:05:52;8.30;99.90
20845;DHT22;10583;49.084;8.646;2023-04-25T02:08:19;8.20;99.90
20845;DHT22;10583;49.084;8.646;2023-04-25T02:10:46;8.30;99.90
20845;DHT22;10583;49.084;8.646;2023-04-25T02:13:14;8.20;99.90
20845;DHT22;10583;49.084;8.646;2023-04-25T02:15:40;8.30;99.90
20845;DHT22;10583;49.084;8.646;2023-04-25T02:18:07;8.30;99.90
20845;DHT22;10583;49.084;8.646;2023-04-25T02:20:36;8.30;99.90
20845;DHT22;10583;49.084;8.646;2023-04-25T02:23:02;8.30;99.90
20845;DHT22;10583;49.084;8.646;2023-04-25T02:25:30;8.40;99.90
20845;DHT22;10583;49.084;8.646;2023-04-25T02:27:56;8.40;99.90
20845;DHT22;10583;49.084;8.646;2023-04-25T02:30:24;8.40;99.90
20845;DHT22;10583;49.084;8.646;2023-04-25T02:32:51;8.40;99.90
20845;DHT22;10583;49.084;8.646;2023-04-25T02:35:18;8.40;99.90
20845;DHT22;10583;49.084;8.646;2023-04-25T02:37:45;8.40;99.90
20845;DHT22;10583;49.084;8.646;2023-04-25T02:40:12;8.40;99.90
20845;DHT22;10583;49.084;8.646;2023-04-25T02:42:38;8.40;99.90
20845;DHT22;10583;49.084;8.646;2023-04-25T02:45:06;8.40;99.90
20845;DHT22;10583;49.084;8.646;2023-04-25T02:47:34;8.30;99.90
20845;DHT22;10583;49.084;8.646;2023-04-25T02:50:00;8.30;99.90
20845;DHT22;10583;49.084;8.646;2023-04-25T02:52:27;8.30;99.90
20845;DHT22;10583;49.084;8.646;2023-04-25T02:54:54;8.20;99.90
20845;DHT22;10583;49.084;8.646;2023-04-25T02:57:20;8.30;99.90
20845;DHT22;10583;49.084;8.646;2023-04-25T02:59:47;8.20;99.90
20845;DHT22;10583;49.084;8.646;2023-04-25T03:02:14;8.20;99.90
20845;DHT22;10583;49.084;8.646;2023-04-25T03:04:42;8.20;99.90
20845;DHT22;10583;49.084;8.646;2023-04-25T03:07:08;8.20;99.90
20845;DHT22;10583;49.084;8.646;2023-04-25T03:09:35;8.20;99.90
20845;DHT22;10583;49.084;8.646;2023-04-25T03:12:02;8.10;99.90
20845;DHT22;10583;49.084;8.646;2023-04-25T03:14:29;8.10;99.90
20845;DHT22;10583;49.084;8.646;2023-04-25T03:16:55;8.00;99.90
20845;DHT22;10583;49.084;8.646;2023-04-25T03:19:22;8.00;99.90
20845;DHT22;10583;49.084;8.646;2023-04-25T03:21:50;8.10;99.90
20845;DHT22;10583;49.084;8.646;2023-04-25T03:24:17;8.10;99.90
20845;DHT22;10583;49.084;8.646;2023-04-25T03:26:43;8.00;99.90
20845;DHT22;10583;49.084;8.646;2023-04-25T03:29:10;8.00;99.90
20845;DHT22;10583;49.084;8.646;2023-04-25T03:31:38;8.00;99.90
20845;DHT22;10583;49.084;8.646;2023-04-25T03:34:04;8.00;99.90
20845;DHT22;10583;49.084;8.646;2023-04-25T03:36:31;7.90;99.90
20845;DHT22;10583;49.084;8.646;2023-04-25T03:38:59;7.80;99.90
20845;DHT22;10583;49.084;8.646;2023-04-25T03:41:26;7.80;99.90
20845;DHT22;10583;49.084;8.646;2023-04-25T03:43:53;7.70;99.90
20845;DHT22;10583;49.084;8.646;2023-04-25T03:46:22;7.70;99.90
20845;DHT22;10583;49.084;8.646;2023-04-25T03:48:49;7.70;99.90
20845;DHT22;10583;49.084;8.646;2023-04-25T03:51:15;7.70;99.90
20845;DHT22;10583;49.084;8.646;2023-04-25T03:53:42;7.70;99.90
20845;DHT22;10583;49.084;8.646;2023-04-25T03:56:10;7.70;99.90
20845;DHT22;10583;49.084;8.646;2023-04-25T03:58:37;7.70;99.90
20845;DHT22;10583;49.084;8.646;2023-04-25T04:01:04;7.70;99.90
20845;DHT22;10583;49.084;8.646;2023-04-25T04:03:33;7.60;99.90
20845;DHT22;10583;49.084;8.646;2023-04-25T04:06:00;7.60;99.90
20845;DHT22;10583;49.084;8.646;2023-04-25T04:08:27;7.50;99.90
20845;DHT22;10583;49.084;8.646;2023-04-25T04:10:53;7.60;99.90
20845;DHT22;10583;49.084;8.646;2023-04-25T04:13:21;7.60;99.90
20845;DHT22;10583;49.084;8.646;2023-04-25T04:15:48;7.60;99.90
20845;DHT22;10583;49.084;8.646;2023-04-25T04:18:15;7.60;99.90
20845;DHT22;10583;49.084;8.646;2023-04-25T04:20:41;7.60;99.90
20845;DHT22;10583;49.084;8.646;2023-04-25T04:23:08;7.60;99.90
20845;DHT22;10583;49.084;8.646;2023-04-25T04:25:36;7.60;99.90
20845;DHT22;10583;49.084;8.646;2023-04-25T04:28:03;7.70;99.90
20845;DHT22;10583;49.084;8.646;2023-04-25T04:30:32;7.70;99.90
20845;DHT22;10583;49.084;8.646;2023-04-25T04:33:02;7.70;99.90
20845;DHT22;10583;49.084;8.646;2023-04-25T04:35:29;7.80;99.90
20845;DHT22;10583;49.084;8.646;2023-04-25T04:37:55;7.80;99.90
20845;DHT22;10583;49.084;8.646;2023-04-25T04:40:22;7.70;99.90
20845;DHT22;10583;49.084;8.646;2023-04-25T04:42:49;7.80;99.90
20845;DHT22;10583;49.084;8.646;2023-04-25T04:45:15;7.80;99.90
20845;DHT22;10583;49.084;8.646;2023-04-25T04:47:44;7.80;99.90
20845;DHT22;10583;49.084;8.646;2023-04-25T04:50:11;7.90;99.90
20845;DHT22;10583;49.084;8.646;2023-04-25T04:52:38;7.90;99.90
20845;DHT22;10583;49.084;8.646;2023-04-25T04:55:06;7.80;99.90
20845;DHT22;10583;49.084;8.646;2023-04-25T04:57:35;7.90;99.90
20845;DHT22;10583;49.084;8.646;2023-04-25T05:00:06;7.90;99.90
20845;DHT22;10583;49.084;8.646;2023-04-25T05:02:36;8.00;99.90
20845;DHT22;10583;49.084;8.646;2023-04-25T05:05:05;8.00;99.90
20845;DHT22;10583;49.084;8.646;2023-04-25T05:07:31;8.10;99.90
20845;DHT22;10583;49.084;8.646;2023-04-25T05:09:58;8.10;99.90
20845;DHT22;10583;49.084;8.646;2023-04-25T05:12:25;8.20;99.90
20845;DHT22;10583;49.084;8.646;2023-04-25T05:14:52;8.20;99.90
20845;DHT22;10583;49.084;8.646;2023-04-25T05:17:18;8.30;99.90
20845;DHT22;10583;49.084;8.646;2023-04-25T05:19:45;8.20;99.90
20845;DHT22;10583;49.084;8.646;2023-04-25T05:22:13;8.20;99.90
20845;DHT22;10583;49.084;8.646;2023-04-25T05:24:40;8.10;99.90
20845;DHT22;10583;49.084;8.646;2023-04-25T05:27:06;8.10;99.90
20845;DHT22;10583;49.084;8.646;2023-04-25T05:29:33;8.10;99.90
20845;DHT22;10583;49.084;8.646;2023-04-25T05:32:00;8.10;99.90
20845;DHT22;10583;49.084;8.646;2023-04-25T05:34:27;8.10;99.90
20845;DHT22;10583;49.084;8.646;2023-04-25T05:36:54;8.20;99.90
20845;DHT22;10583;49.084;8.646;2023-04-25T05:39:22;8.20;99.90
20845;DHT22;10583;49.084;8.646;2023-04-25T05:41:48;8.30;99.90
20845;DHT22;10583;49.084;8.646;2023-04-25T05:44:15;8.30;99.90
20845;DHT22;10583;49.084;8.646;2023-04-25T05:46:42;8.40;99.90
20845;DHT22;10583;49.084;8.646;2023-04-25T05:49:09;8.50;99.90
20845;DHT22;10583;49.084;8.646;2023-04-25T05:51:35;8.50;99.90
20845;DHT22;10583;49.084;8.646;2023-04-25T05:54:02;8.60;99.90
20845;DHT22;10583;49.084;8.646;2023-04-25T05:56:30;8.70;99.90
20845;DHT22;10583;49.084;8.646;2023-04-25T05:58:57;8.80;99.90
20845;DHT22;10583;49.084;8.646;2023-04-25T06:01:23;9.00;99.90
20845;DHT22;10583;49.084;8.646;2023-04-25T06:03:50;9.30;99.90
20845;DHT22;10583;49.084;8.646;2023-04-25T06:06:18;9.50;99.90
20845;DHT22;10583;49.084;8.646;2023-04-25T06:08:44;9.60;99.90
20845;DHT22;10583;49.084;8.646;2023-04-25T06:11:11;9.60;99.90
20845;DHT22;10583;49.084;8.646;2023-04-25T06:13:39;9.60;99.90
20845;DHT22;10583;49.084;8.646;2023-04-25T06:16:06;9.60;99.90
20845;DHT22;10583;49.084;8.646;2023-04-25T06:18:33;9.60;99.90
20845;DHT22;10583;49.084;8.646;2023-04-25T06:20:59;9.60;99.90
20845;DHT22;10583;49.084;8.646;2023-04-25T06:23:26;9.60;99.90
20845;DHT22;10583;49.084;8.646;2023-04-25T06:25:53;9.60;99.90
20845;DHT22;10583;49.084;8.646;2023-04-25T06:28:19;9.70;99.90
20845;DHT22;10583;49.084;8.646;2023-04-25T06:30:48;9.70;99.90
20845;DHT22;10583;49.084;8.646;2023-04-25T06:33:15;9.70;99.90
20845;DHT22;10583;49.084;8.646;2023-04-25T06:35:42;9.80;99.90
20845;DHT22;10583;49.084;8.646;2023-04-25T06:38:08;9.90;99.90
20845;DHT22;10583;49.084;8.646;2023-04-25T06:40:35;9.90;99.90
20845;DHT22;10583;49.084;8.646;2023-04-25T06:43:02;9.80;99.90
20845;DHT22;10583;49.084;8.646;2023-04-25T06:45:28;9.80;99.90
20845;DHT22;10583;49.084;8.646;2023-04-25T06:47:56;9.70;99.90
20845;DHT22;10583;49.084;8.646;2023-04-25T06:50:23;9.50;99.90
20845;DHT22;10583;49.084;8.646;2023-04-25T06:52:52;9.40;99.90
20845;DHT22;10583;49.084;8.646;2023-04-25T06:55:19;9.50;99.90
20845;DHT22;10583;49.084;8.646;2023-04-25T06:57:45;9.50;99.90
20845;DHT22;10583;49.084;8.646;2023-04-25T07:00:13;9.60;99.90
20845;DHT22;10583;49.084;8.646;2023-04-25T07:02:40;9.60;99.90
20845;DHT22;10583;49.084;8.646;2023-04-25T07:05:10;9.60;99.90
20845;DHT22;10583;49.084;8.646;2023-04-25T07:07:37;9.50;99.90
20845;DHT22;10583;49.084;8.646;2023-04-25T07:10:04;9.40;99.90
20845;DHT22;10583;49.084;8.646;2023-04-25T07:12:31;9.40;99.90
20845;DHT22;10583;49.084;8.646;2023-04-25T07:14:57;9.40;99.90
20845;DHT22;10583;49.084;8.646;2023-04-25T07:17:24;9.40;99.90
20845;DHT22;10583;49.084;8.646;2023-04-25T07:19:51;9.50;99.90
20845;DHT22;10583;49.084;8.646;2023-04-25T07:22:19;9.50;99.90
20845;DHT22;10583;49.084;8.646;2023-04-25T07:24:45;9.50;99.90
20845;DHT22;10583;49.084;8.646;2023-04-25T07:27:13;9.50;99.90
20845;DHT22;10583;49.084;8.646;2023-04-25T07:29:40;9.50;99.90
20845;DHT22;10583;49.084;8.646;2023-04-25T07:32:07;9.50;99.90
20845;DHT22;10583;49.084;8.646;2023-04-25T07:34:35;9.60;99.90
20845;DHT22;10583;49.084;8.646;2023-04-25T07:37:04;9.50;99.90
20845;DHT22;10583;49.084;8.646;2023-04-25T07:39:32;9.50;99.90
20845;DHT22;10583;49.084;8.646;2023-04-25T07:41:59;9.50;99.90
20845;DHT22;10583;49.084;8.646;2023-04-25T07:44:25;9.50;99.90
20845;DHT22;10583;49.084;8.646;2023-04-25T07:46:52;9.50;99.90
20845;DHT22;10583;49.084;8.646;2023-04-25T07:49:19;9.50;99.90
20845;DHT22;10583;49.084;8.646;2023-04-25T07:51:45;9.40;99.90
20845;DHT22;10583;49.084;8.646;2023-04-25T07:54:14;9.50;99.90
20845;DHT22;10583;49.084;8.646;2023-04-25T07:56:42;9.50;99.90
20845;DHT22;10583;49.084;8.646;2023-04-25T07:59:10;9.50;99.90
20845;DHT22;10583;49.084;8.646;2023-04-25T08:01:36;9.40;99.90
20845;DHT22;10583;49.084;8.646;2023-04-25T08:04:03;9.30;99.90
20845;DHT22;10583;49.084;8.646;2023-04-25T08:06:30;9.40;99.90
20845;DHT22;10583;49.084;8.646;2023-04-25T08:08:57;9.40;99.90
20845;DHT22;10583;49.084;8.646;2023-04-25T08:11:23;9.50;99.90
20845;DHT22;10583;49.084;8.646;2023-04-25T08:13:51;9.70;99.90
20845;DHT22;10583;49.084;8.646;2023-04-25T08:16:18;9.80;99.90
20845;DHT22;10583;49.084;8.646;2023-04-25T08:18:45;10.00;99.90
20845;DHT22;10583;49.084;8.646;2023-04-25T08:21:12;10.10;99.90
20845;DHT22;10583;49.084;8.646;2023-04-25T08:23:39;10.20;99.90
20845;DHT22;10583;49.084;8.646;2023-04-25T08:26:05;10.20;99.90
20845;DHT22;10583;49.084;8.646;2023-04-25T08:28:32;10.10;99.90
20845;DHT22;10583;49.084;8.646;2023-04-25T08:31:00;10.10;99.90
20845;DHT22;10583;49.084;8.646;2023-04-25T08:33:27;10.00;99.90
20845;DHT22;10583;49.084;8.646;2023-04-25T08:35:54;10.00;99.90
20845;DHT22;10583;49.084;8.646;2023-04-25T08:38:20;9.90;99.90
20845;DHT22;10583;49.084;8.646;2023-04-25T08:40:49;9.70;99.90
20845;DHT22;10583;49.084;8.646;2023-04-25T08:43:19;9.60;99.90
20845;DHT22;10583;49.084;8.646;2023-04-25T08:45:46;9.50;99.90
20845;DHT22;10583;49.084;8.646;2023-04-25T08:48:17;9.40;99.90
20845;DHT22;10583;49.084;8.646;2023-04-25T08:50:48;9.30;99.90
20845;DHT22;10583;49.084;8.646;2023-04-25T08:53:17;9.10;99.90
20845;DHT22;10583;49.084;8.646;2023-04-25T08:55:46;9.00;99.90
20845;DHT22;10583;49.084;8.646;2023-04-25T08:58:13;8.80;99.90
20845;DHT22;10583;49.084;8.646;2023-04-25T09:00:40;8.70;99.90
20845;DHT22;10583;49.084;8.646;2023-04-25T09:03:07;8.60;99.90
20845;DHT22;10583;49.084;8.646;2023-04-25T09:05:35;8.50;99.90
20845;DHT22;10583;49.084;8.646;2023-04-25T09:08:02;8.50;99.90
20845;DHT22;10583;49.084;8.646;2023-04-25T09:10:29;8.40;99.90
20845;DHT22;10583;49.084;8.646;2023-04-25T09:13:03;8.40;99.90
20845;DHT22;10583;49.084;8.646;2023-04-25T09:15:31;8.50;99.90
20845;DHT22;10583;49.084;8.646;2023-04-25T09:17:59;8.50;99.90
20845;DHT22;10583;49.084;8.646;2023-04-25T09:20:26;8.60;99.90
20845;DHT22;10583;49.084;8.646;2023-04-25T09:23:03;8.60;99.90
20845;DHT22;10583;49.084;8.646;2023-04-25T09:25:34;8.60;99.90
20845;DHT22;10583;49.084;8.646;2023-04-25T09:28:05;8.70;99.90
20845;DHT22;10583;49.084;8.646;2023-04-25T09:30:33;8.80;99.90
20845;DHT22;10583;49.084;8.646;2023-04-25T09:33:04;8.90;99.90
20845;DHT22;10583;49.084;8.646;2023-04-25T09:35:36;9.00;99.90
20845;DHT22;10583;49.084;8.646;2023-04-25T09:38:09;9.10;99.90
20845;DHT22;10583;49.084;8.646;2023-04-25T09:40:39;9.20;99.90
20845;DHT22;10583;49.084;8.646;2023-04-25T09:43:09;9.30;99.90
20845;DHT22;10583;49.084;8.646;2023-04-25T09:45:41;9.40;99.90
20845;DHT22;10583;49.084;8.646;2023-04-25T09:48:11;9.40;99.90
20845;DHT22;10583;49.084;8.646;2023-04-25T09:50:38;9.50;99.90
20845;DHT22;10583;49.084;8.646;2023-04-25T09:53:05;9.50;99.90
20845;DHT22;10583;49.084;8.646;2023-04-25T09:55:34;9.60;99.90
20845;DHT22;10583;49.084;8.646;2023-04-25T09:58:04;9.70;99.90
20845;DHT22;10583;49.084;8.646;2023-04-25T10:00:33;9.80;99.90
20845;DHT22;10583;49.084;8.646;2023-04-25T10:03:01;9.90;99.90
20845;DHT22;10583;49.084;8.646;2023-04-25T10:05:30;9.90;99.90
20845;DHT22;10583;49.084;8.646;2023-04-25T10:07:59;10.00;99.90
20845;DHT22;10583;49.084;8.646;2023-04-25T10:10:30;9.90;99.90
20845;DHT22;10583;49.084;8.646;2023-04-25T10:13:03;9.90;99.90
20845;DHT22;10583;49.084;8.646;2023-04-25T10:15:32;9.70;99.90
20845;DHT22;10583;49.084;8.646;2023-04-25T10:18:01;9.60;99.90
20845;DHT22;10583;49.084;8.646;2023-04-25T10:20:28;9.50;99.90
20845;DHT22;10583;49.084;8.646;2023-04-25T10:22:57;9.50;99.90
20845;DHT22;10583;49.084;8.646;2023-04-25T10:25:25;9.40;99.90
20845;DHT22;10583;49.084;8.646;2023-04-25T10:27:52;9.40;99.90
20845;DHT22;10583;49.084;8.646;2023-04-25T10:30:20;9.50;99.90
20845;DHT22;10583;49.084;8.646;2023-04-25T10:32:47;9.70;99.90
20845;DHT22;10583;49.084;8.646;2023-04-25T10:35:16;9.70;99.90
20845;DHT22;10583;49.084;8.646;2023-04-25T10:38:00;9.80;99.90
20845;DHT22;10583;49.084;8.646;2023-04-25T10:40:29;9.70;99.90
20845;DHT22;10583;49.084;8.646;2023-04-25T10:42:55;9.80;99.90
20845;DHT22;10583;49.084;8.646;2023-04-25T10:45:52;9.80;99.90
20845;DHT22;10583;49.084;8.646;2023-04-25T10:48:25;9.70;99.90
20845;DHT22;10583;49.084;8.646;2023-04-25T10:51:07;9.70;99.90
20845;DHT22;10583;49.084;8.646;2023-04-25T10:53:33;9.70;99.90
20845;DHT22;10583;49.084;8.646;2023-04-25T10:56:00;9.70;99.90
20845;DHT22;10583;49.084;8.646;2023-04-25T10:58:35;9.50;99.90
20845;DHT22;10583;49.084;8.646;2023-04-25T11:01:03;9.40;99.90
20845;DHT22;10583;49.084;8.646;2023-04-25T11:03:30;9.30;99.90
20845;DHT22;10583;49.084;8.646;2023-04-25T11:05:59;9.40;99.90
20845;DHT22;10583;49.084;8.646;2023-04-25T11:08:37;9.40;99.90
20845;DHT22;10583;49.084;8.646;2023-04-25T11:11:08;9.40;99.90
20845;DHT22;10583;49.084;8.646;2023-04-25T11:13:34;9.40;99.90
20845;DHT22;10583;49.084;8.646;2023-04-25T11:16:03;9.40;99.90
20845;DHT22;10583;49.084;8.646;2023-04-25T11:18:29;9.60;99.90
20845;DHT22;10583;49.084;8.646;2023-04-25T11:20:58;9.70;99.90
20845;DHT22;10583;49.084;8.646;2023-04-25T11:23:25;9.60;99.90
20845;DHT22;10583;49.084;8.646;2023-04-25T11:25:52;9.50;99.90
20845;DHT22;10583;49.084;8.646;2023-04-25T11:28:21;9.50;99.90
20845;DHT22;10583;49.084;8.646;2023-04-25T11:30:48;9.70;99.90
20845;DHT22;10583;49.084;8.646;2023-04-25T11:33:17;9.90;99.90
20845;DHT22;10583;49.084;8.646;2023-04-25T11:35:44;10.30;99.90
20845;DHT22;10583;49.084;8.646;2023-04-25T11:38:12;10.50;99.90
20845;DHT22;10583;49.084;8.646;2023-04-25T11:40:39;10.80;99.90
20845;DHT22;10583;49.084;8.646;2023-04-25T11:43:06;10.90;99.90
20845;DHT22;10583;49.084;8.646;2023-04-25T11:45:33;10.90;99.90
20845;DHT22;10583;49.084;8.646;2023-04-25T11:48:01;10.90;99.90
20845;DHT22;10583;49.084;8.646;2023-04-25T11:50:30;10.90;99.90
20845;DHT22;10583;49.084;8.646;2023-04-25T11:52:57;10.90;99.90
20845;DHT22;10583;49.084;8.646;2023-04-25T11:55:23;10.70;99.90
20845;DHT22;10583;49.084;8.646;2023-04-25T11:57:50;10.70;99.90
20845;DHT22;10583;49.084;8.646;2023-04-25T12:00:18;10.70;99.90
20845;DHT22;10583;49.084;8.646;2023-04-25T12:02:46;10.80;99.90
20845;DHT22;10583;49.084;8.646;2023-04-25T12:05:14;10.80;99.90
20845;DHT22;10583;49.084;8.646;2023-04-25T12:07:43;10.80;99.90
20845;DHT22;10583;49.084;8.646;2023-04-25T12:10:11;10.70;99.90
20845;DHT22;10583;49.084;8.646;2023-04-25T12:12:42;10.80;99.90
20845;DHT22;10583;49.084;8.646;2023-04-25T12:15:13;10.90;99.90
20845;DHT22;10583;49.084;8.646;2023-04-25T12:17:41;10.90;99.90
20845;DHT22;10583;49.084;8.646;2023-04-25T12:20:10;10.90;99.90
20845;DHT22;10583;49.084;8.646;2023-04-25T12:22:37;11.00;99.90
20845;DHT22;10583;49.084;8.646;2023-04-25T12:25:06;11.10;99.90
20845;DHT22;10583;49.084;8.646;2023-04-25T12:27:33;11.00;99.90
20845;DHT22;10583;49.084;8.646;2023-04-25T12:30:01;11.00;99.90
20845;DHT22;10583;49.084;8.646;2023-04-25T12:32:29;10.90;99.90
20845;DHT22;10583;49.084;8.646;2023-04-25T12:34:56;11.00;99.90
20845;DHT22;10583;49.084;8.646;2023-04-25T12:37:23;11.00;99.90
20845;DHT22;10583;49.084;8.646;2023-04-25T12:39:49;11.10;99.90
20845;DHT22;10583;49.084;8.646;2023-04-25T12:42:18;11.30;99.90
20845;DHT22;10583;49.084;8.646;2023-04-25T12:44:44;11.30;99.90
20845;DHT22;10583;49.084;8.646;2023-04-25T12:47:12;11.50;99.90
20845;DHT22;10583;49.084;8.646;2023-04-25T12:49:38;11.80;99.90
20845;DHT22;10583;49.084;8.646;2023-04-25T12:52:05;11.90;99.90
20845;DHT22;10583;49.084;8.646;2023-04-25T12:54:32;11.80;99.90
20845;DHT22;10583;49.084;8.646;2023-04-25T12:56:58;11.70;99.90
20845;DHT22;10583;49.084;8.646;2023-04-25T12:59:28;11.70;99.90
20845;DHT22;10583;49.084;8.646;2023-04-25T13:01:54;11.50;99.90
20845;DHT22;10583;49.084;8.646;2023-04-25T13:04:21;11.30;99.90
20845;DHT22;10583;49.084;8.646;2023-04-25T13:06:48;11.10;99.90
20845;DHT22;10583;49.084;8.646;2023-04-25T13:09:14;10.80;99.90
20845;DHT22;10583;49.084;8.646;2023-04-25T13:11:41;10.40;99.90
20845;DHT22;10583;49.084;8.646;2023-04-25T13:14:08;10.30;99.90
20845;DHT22;10583;49.084;8.646;2023-04-25T13:16:36;10.30;99.90
20845;DHT22;10583;49.084;8.646;2023-04-25T13:19:03;10.40;99.90
20845;DHT22;10583;49.084;8.646;2023-04-25T13:21:31;10.50;99.90
20845;DHT22;10583;49.084;8.646;2023-04-25T13:23:58;10.50;99.90
20845;DHT22;10583;49.084;8.646;2023-04-25T13:26:25;10.60;99.90
20845;DHT22;10583;49.084;8.646;2023-04-25T13:28:52;10.80;99.90
20845;DHT22;10583;49.084;8.646;2023-04-25T13:31:18;10.90;99.90
20845;DHT22;10583;49.084;8.646;2023-04-25T13:33:46;11.10;99.90
20845;DHT22;10583;49.084;8.646;2023-04-25T13:36:13;11.20;99.90
20845;DHT22;10583;49.084;8.646;2023-04-25T13:38:40;11.10;99.90
20845;DHT22;10583;49.084;8.646;2023-04-25T13:41:09;11.10;99.90
20845;DHT22;10583;49.084;8.646;2023-04-25T13:43:36;11.10;99.90
20845;DHT22;10583;49.084;8.646;2023-04-25T13:46:03;11.20;99.90
20845;DHT22;10583;49.084;8.646;2023-04-25T13:48:30;11.20;99.90
20845;DHT22;10583;49.084;8.646;2023-04-25T13:50:58;11.30;99.90
20845;DHT22;10583;49.084;8.646;2023-04-25T13:53:24;11.60;99.90
20845;DHT22;10583;49.084;8.646;2023-04-25T13:55:53;11.70;99.90
20845;DHT22;10583;49.084;8.646;2023-04-25T13:58:20;11.60;99.90
20845;DHT22;10583;49.084;8.646;2023-04-25T14:00:47;11.60;99.90
20845;DHT22;10583;49.084;8.646;2023-04-25T14:03:14;11.80;99.90
20845;DHT22;10583;49.084;8.646;2023-04-25T14:05:41;12.00;99.90
20845;DHT22;10583;49.084;8.646;2023-04-25T14:08:09;12.10;99.90
20845;DHT22;10583;49.084;8.646;2023-04-25T14:10:36;12.00;99.90
20845;DHT22;10583;49.084;8.646;2023-04-25T14:13:03;12.00;99.90
20845;DHT22;10583;49.084;8.646;2023-04-25T14:15:31;12.00;99.90
20845;DHT22;10583;49.084;8.646;2023-04-25T14:17:58;12.10;99.90
20845;DHT22;10583;49.084;8.646;2023-04-25T14:20:25;12.00;99.90
20845;DHT22;10583;49.084;8.646;2023-04-25T14:22:52;12.00;99.90
20845;DHT22;10583;49.084;8.646;2023-04-25T14:25:21;11.90;99.90
20845;DHT22;10583;49.084;8.646;2023-04-25T14:27:48;11.80;99.90
20845;DHT22;10583;49.084;8.646;2023-04-25T14:30:15;11.70;99.90
20845;DHT22;10583;49.084;8.646;2023-04-25T14:32:42;11.70;99.90
20845;DHT22;10583;49.084;8.646;2023-04-25T14:35:09;11.80;99.90
20845;DHT22;10583;49.084;8.646;2023-04-25T14:37:36;11.80;99.90
20845;DHT22;10583;49.084;8.646;2023-04-25T14:40:03;12.10;99.90
20845;DHT22;10583;49.084;8.646;2023-04-25T14:42:32;12.30;99.90
20845;DHT22;10583;49.084;8.646;2023-04-25T14:44:59;12.20;99.90
20845;DHT22;10583;49.084;8.646;2023-04-25T14:47:26;12.20;99.90
20845;DHT22;10583;49.084;8.646;2023-04-25T14:49:52;12.20;99.90
20845;DHT22;10583;49.084;8.646;2023-04-25T14:52:20;12.00;99.90
20845;DHT22;10583;49.084;8.646;2023-04-25T14:54:47;11.80;99.90
20845;DHT22;10583;49.084;8.646;2023-04-25T14:57:14;11.70;99.90
20845;DHT22;10583;49.084;8.646;2023-04-25T14:59:42;11.60;99.90
20845;DHT22;10583;49.084;8.646;2023-04-25T15:02:08;11.40;99.90
20845;DHT22;10583;49.084;8.646;2023-04-25T15:04:35;11.30;99.90
20845;DHT22;10583;49.084;8.646;2023-04-25T15:07:03;11.30;99.90
20845;DHT22;10583;49.084;8.646;2023-04-25T15:09:30;11.20;99.90
20845;DHT22;10583;49.084;8.646;2023-04-25T15:11:57;11.30;99.90
20845;DHT22;10583;49.084;8.646;2023-04-25T15:14:24;11.30;99.90
20845;DHT22;10583;49.084;8.646;2023-04-25T15:17:05;11.20;99.90
20845;DHT22;10583;49.084;8.646;2023-04-25T15:19:32;11.30;99.90
20845;DHT22;10583;49.084;8.646;2023-04-25T15:21:59;11.30;99.90
20845;DHT22;10583;49.084;8.646;2023-04-25T15:24:26;11.50;99.90
20845;DHT22;10583;49.084;8.646;2023-04-25T15:26:53;11.60;99.90
20845;DHT22;10583;49.084;8.646;2023-04-25T15:29:20;11.70;99.90
20845;DHT22;10583;49.084;8.646;2023-04-25T15:31:47;11.60;99.90
20845;DHT22;10583;49.084;8.646;2023-04-25T15:34:15;11.50;99.90
20845;DHT22;10583;49.084;8.646;2023-04-25T15:36:42;11.40;99.90
20845;DHT22;10583;49.084;8.646;2023-04-25T15:39:09;11.20;99.90
20845;DHT22;10583;49.084;8.646;2023-04-25T15:41:36;11.10;99.90
20845;DHT22;10583;49.084;8.646;2023-04-25T15:44:02;11.10;99.90